Time;durP1;ratioP1;P1;durP2;ratioP2;P2;SDS_P1;SDS_P2;PMS_P1;PMS_P2;Temp;Humidity;BMP_temperature;BMP_pressure;BME280_temperature;BME280_humidity;BME280_pressure;Samples;Min_cycle;Max_cycle;Signal;HPM_P1;HPM_P2
2023/05/10 00:00:45;;;;;;;2.88;2.67;;;13.80;99.90;;;14.54;100.00;97245.00;5112252;28;20691;-64
2023/05/10 00:03:18;;;;;;;3.50;3.30;;;13.90;99.90;;;14.57;100.00;97238.25;5104329;28;20208;-63
2023/05/10 00:05:52;;;;;;;3.85;3.42;;;13.90;99.90;;;14.62;100.00;97236.69;5109466;28;20212;-65
2023/05/10 00:08:25;;;;;;;3.80;3.50;;;14.00;99.90;;;14.64;100.00;97241.88;5105089;29;20214;-64
2023/05/10 00:10:58;;;;;;;4.10;3.72;;;14.00;99.90;;;14.68;100.00;97233.44;5115790;28;20258;-63
2023/05/10 00:13:32;;;;;;;3.70;3.40;;;14.00;99.90;;;14.65;100.00;97238.50;5112968;29;20291;-66
2023/05/10 00:16:06;;;;;;;4.03;3.63;;;14.00;99.90;;;14.66;100.00;97240.22;5113284;28;20228;-64
2023/05/10 00:18:39;;;;;;;3.90;3.63;;;14.00;99.90;;;14.68;100.00;97238.59;5110058;28;20217;-65
2023/05/10 00:21:13;;;;;;;3.65;3.35;;;14.00;99.90;;;14.69;100.00;97240.31;5109764;29;20225;-67
2023/05/10 00:23:46;;;;;;;3.65;3.35;;;14.10;99.90;;;14.69;100.00;97232.59;5106303;28;20583;-66
2023/05/10 00:26:19;;;;;;;3.47;3.17;;;14.00;99.90;;;14.69;100.00;97234.31;5110768;28;20202;-64
2023/05/10 00:28:52;;;;;;;3.50;3.30;;;14.00;99.90;;;14.66;100.00;97232.53;5108191;28;20227;-65
2023/05/10 00:31:26;;;;;;;3.67;3.38;;;13.90;99.90;;;14.66;100.00;97235.09;5107032;28;20217;-63
2023/05/10 00:33:59;;;;;;;4.00;3.53;;;14.00;99.90;;;14.67;100.00;97230.81;5101364;28;20296;-64
2023/05/10 00:36:33;;;;;;;4.40;4.00;;;14.00;99.90;;;14.69;100.00;97240.31;5108224;28;20292;-64
2023/05/10 00:39:06;;;;;;;4.53;3.80;;;14.00;99.90;;;14.68;100.00;97237.69;5105807;28;20230;-64
2023/05/10 00:41:39;;;;;;;4.18;3.47;;;14.00;99.90;;;14.65;100.00;97230.78;5111309;28;20220;-66
2023/05/10 00:44:12;;;;;;;3.88;3.58;;;14.00;99.90;;;14.68;100.00;97241.16;5114259;28;20213;-65
2023/05/10 00:46:45;;;;;;;4.15;3.75;;;14.00;99.90;;;14.78;100.00;97238.03;5103390;28;20201;-64
2023/05/10 00:49:19;;;;;;;4.13;3.80;;;14.00;99.90;;;14.86;100.00;97233.13;5105665;28;20235;-66
2023/05/10 00:51:53;;;;;;;3.75;3.50;;;14.10;99.90;;;14.76;100.00;97246.53;5114926;28;20212;-64
2023/05/10 00:54:26;;;;;;;4.43;4.03;;;14.00;99.90;;;14.68;100.00;97246.31;5113627;28;20680;-64
2023/05/10 00:56:59;;;;;;;2.70;2.50;;;14.00;99.90;;;14.73;100.00;97251.56;5107365;28;20209;-64
2023/05/10 00:59:32;;;;;;;2.28;2.08;;;13.90;99.90;;;14.65;100.00;97259.06;5112874;28;20602;-65
2023/05/10 01:02:06;;;;;;;2.13;1.90;;;13.80;99.90;;;14.51;100.00;97255.16;5109668;28;20731;-64
2023/05/10 01:04:39;;;;;;;2.00;1.90;;;13.70;99.90;;;14.38;100.00;97262.47;5104392;28;20213;-63
2023/05/10 01:07:14;;;;;;;1.70;1.60;;;13.60;99.90;;;14.26;100.00;97269.78;5118340;28;20760;-66
2023/05/10 01:09:47;;;;;;;1.85;1.75;;;13.50;99.90;;;14.24;100.00;97276.56;5110409;28;20696;-66
2023/05/10 01:12:20;;;;;;;1.70;1.60;;;13.50;99.90;;;14.29;100.00;97274.16;5113714;28;20201;-63
2023/05/10 01:14:55;;;;;;;1.52;1.45;;;13.60;99.90;;;14.11;100.00;97279.56;5111515;28;20236;-63
2023/05/10 01:17:28;;;;;;;1.40;1.38;;;13.30;99.90;;;14.04;100.00;97270.75;5111198;28;20219;-64
2023/05/10 01:20:01;;;;;;;1.38;1.38;;;13.30;99.90;;;13.91;100.00;97271.19;5115387;28;20290;-64
2023/05/10 01:22:57;;;;;;;1.60;1.40;;;13.10;99.90;;;13.84;100.00;97284.59;5113003;28;20227;-64
2023/05/10 01:26:08;;;;;;;1.40;1.30;;;13.10;99.90;;;13.70;100.00;97286.69;5113182;28;20770;-64
2023/05/10 01:29:16;;;;;;;1.60;1.50;;;13.00;99.90;;;13.67;100.00;97290.03;5116887;28;20229;-64
2023/05/10 01:32:17;;;;;;;1.30;1.30;;;12.90;99.90;;;13.66;100.00;97289.97;5111492;28;20296;-64
2023/05/10 01:35:01;;;;;;;1.10;1.10;;;12.90;99.90;;;13.68;100.00;97288.34;5105225;28;20691;-64
2023/05/10 01:37:43;;;;;;;1.65;1.10;;;13.00;99.90;;;13.64;100.00;97287.34;5134228;28;20204;-64
2023/05/10 01:40:28;;;;;;;2.30;1.20;;;12.90;99.90;;;13.67;100.00;97292.59;5118026;28;20614;-65
2023/05/10 01:43:04;;;;;;;1.33;1.25;;;12.90;99.90;;;13.57;100.00;97295.66;5118681;28;20251;-63
2023/05/10 01:45:45;;;;;;;1.35;1.10;;;12.90;99.90;;;13.63;100.00;97302.72;5108937;28;20197;-63
2023/05/10 01:48:20;;;;;;;1.05;0.98;;;12.90;99.90;;;13.69;100.00;97305.50;5103062;28;20211;-64
2023/05/10 01:50:55;;;;;;;1.63;1.42;;;12.90;99.90;;;13.67;100.00;97315.69;5119147;28;20212;-64
2023/05/10 01:53:30;;;;;;;2.42;1.27;;;13.00;99.90;;;13.66;100.00;97311.41;5118702;28;20205;-64
2023/05/10 01:56:04;;;;;;;1.30;1.30;;;12.90;99.90;;;13.63;100.00;97315.56;5108673;28;20197;-64
2023/05/10 01:58:42;;;;;;;2.28;1.20;;;12.80;99.90;;;13.62;100.00;97314.69;5108641;28;20204;-65
2023/05/10 02:01:16;;;;;;;1.20;1.10;;;12.80;99.90;;;13.64;100.00;97323.28;5110068;28;20196;-64
2023/05/10 02:03:51;;;;;;;1.42;1.30;;;12.90;99.90;;;13.54;100.00;97321.22;5113925;28;20207;-63
2023/05/10 02:06:26;;;;;;;3.08;1.30;;;12.90;99.90;;;13.61;100.00;97323.19;5106403;28;20228;-63
2023/05/10 02:09:01;;;;;;;1.45;1.35;;;12.90;99.90;;;13.63;100.00;97325.81;5111895;28;20307;-64
2023/05/10 02:11:34;;;;;;;1.38;1.38;;;12.90;99.90;;;13.73;100.00;97331.38;5109537;28;20212;-65
2023/05/10 02:14:10;;;;;;;1.38;1.38;;;12.90;99.90;;;13.67;100.00;97330.25;5112828;28;20212;-63
2023/05/10 02:16:45;;;;;;;1.77;1.65;;;12.90;99.90;;;13.61;100.00;97327.47;5112041;28;20211;-64
2023/05/10 02:19:22;;;;;;;1.40;1.40;;;12.80;99.90;;;13.62;100.00;97337.81;5114108;28;20252;-65
2023/05/10 02:21:56;;;;;;;1.55;1.35;;;12.80;99.90;;;13.55;100.00;97337.50;5117675;28;20822;-64
2023/05/10 02:24:30;;;;;;;1.67;1.58;;;12.70;99.90;;;13.54;100.00;97343.47;5112456;28;20681;-63
2023/05/10 02:27:05;;;;;;;1.70;1.60;;;12.70;99.90;;;13.48;100.00;97347.56;5111028;29;20226;-64
2023/05/10 02:29:39;;;;;;;1.95;1.77;;;12.70;99.90;;;13.40;100.00;97338.69;5107329;28;20229;-65
2023/05/10 02:32:13;;;;;;;1.85;1.55;;;12.60;99.90;;;13.49;100.00;97339.03;5110453;28;20198;-64
2023/05/10 02:34:51;;;;;;;2.00;1.90;;;12.70;99.90;;;13.56;100.00;97342.69;5106850;28;20204;-63
2023/05/10 02:37:26;;;;;;;1.92;1.83;;;12.80;99.90;;;13.54;100.00;97346.03;5114076;28;20208;-63
2023/05/10 02:39:59;;;;;;;1.70;1.60;;;12.70;99.90;;;13.54;100.00;97351.19;5111754;28;20235;-64
2023/05/10 02:42:37;;;;;;;2.10;2.00;;;12.80;99.90;;;13.50;100.00;97353.59;5114259;28;20232;-64
2023/05/10 02:45:15;;;;;;;1.90;1.80;;;12.80;99.90;;;13.56;100.00;97354.66;5106499;28;20760;-64
2023/05/10 02:47:48;;;;;;;1.88;1.70;;;12.80;99.90;;;13.59;100.00;97360.81;5114022;28;20288;-65
2023/05/10 02:50:26;;;;;;;2.00;1.90;;;12.80;99.90;;;13.60;100.00;97351.41;5108644;28;20687;-64
2023/05/10 02:53:02;;;;;;;1.88;1.77;;;12.80;99.90;;;13.55;100.00;97351.22;5114405;28;20201;-63
2023/05/10 02:55:41;;;;;;;2.40;2.20;;;12.80;99.90;;;13.55;100.00;97358.06;5113265;28;20201;-63
2023/05/10 02:58:14;;;;;;;2.45;2.17;;;12.80;99.90;;;13.54;100.00;97362.31;5106848;28;20234;-63
2023/05/10 03:00:47;;;;;;;2.33;2.17;;;12.80;99.90;;;13.62;100.00;97360.91;5112714;28;20704;-64
2023/05/10 03:03:21;;;;;;;2.33;2.13;;;12.80;99.90;;;13.56;100.00;97359.78;5118710;28;20236;-64
2023/05/10 03:05:56;;;;;;;2.35;1.80;;;12.80;99.90;;;13.55;100.00;97358.06;5104232;28;20301;-64
2023/05/10 03:08:30;;;;;;;2.13;2.03;;;12.80;99.90;;;13.52;100.00;97359.69;5113850;28;20208;-64
2023/05/10 03:11:25;;;;;;;2.47;2.28;;;12.80;99.90;;;13.52;100.00;97369.94;5111033;28;20332;-64
2023/05/10 03:14:11;;;;;;;2.35;2.15;;;12.80;99.90;;;13.48;100.00;97365.53;5113474;28;20193;-64
2023/05/10 03:16:47;;;;;;;2.38;2.25;;;12.70;99.90;;;13.45;100.00;97367.13;5112703;28;20676;-65
2023/05/10 03:19:27;;;;;;;2.53;2.42;;;12.70;99.90;;;13.38;100.00;97359.97;5110798;28;20263;-63
2023/05/10 03:22:10;;;;;;;2.58;2.47;;;12.60;99.90;;;13.36;100.00;97367.59;5113000;28;21255;-64
2023/05/10 03:24:45;;;;;;;2.50;2.30;;;12.60;99.90;;;13.43;100.00;97364.47;5107657;28;20673;-63
2023/05/10 03:27:19;;;;;;;2.78;2.58;;;12.60;99.90;;;13.43;100.00;97368.75;5100800;28;20685;-64
2023/05/10 03:29:54;;;;;;;2.70;2.60;;;12.70;99.90;;;13.39;100.00;97378.03;5113084;28;20232;-67
2023/05/10 03:32:27;;;;;;;2.70;2.50;;;12.60;99.90;;;13.42;100.00;97377.22;5112242;28;20197;-63
2023/05/10 03:35:02;;;;;;;2.55;2.45;;;12.70;99.90;;;13.41;100.00;97376.38;5107929;28;20300;-65
2023/05/10 03:37:36;;;;;;;4.13;2.75;;;12.60;99.90;;;13.41;100.00;97378.94;5115316;28;20316;-64
2023/05/10 03:40:10;;;;;;;2.80;2.60;;;12.70;99.90;;;13.38;100.00;97376.25;5110099;29;20227;-64
2023/05/10 03:42:42;;;;;;;2.78;2.67;;;12.60;99.90;;;13.33;100.00;97372.63;5106993;28;20232;-64
2023/05/10 03:45:16;;;;;;;3.15;2.60;;;12.60;99.90;;;13.34;100.00;97374.41;5113276;28;20209;-64
2023/05/10 03:47:48;;;;;;;3.15;2.90;;;12.60;99.90;;;13.34;100.00;97384.66;5111046;28;20209;-64
2023/05/10 03:50:22;;;;;;;3.35;2.85;;;12.60;99.90;;;13.34;100.00;97387.22;5109193;28;20605;-65
2023/05/10 03:52:57;;;;;;;3.13;2.92;;;12.60;99.90;;;13.31;100.00;97378.53;5115423;28;20196;-63
2023/05/10 03:55:34;;;;;;;2.60;2.40;;;12.60;99.90;;;13.33;100.00;97376.88;5111619;28;20207;-64
2023/05/10 03:58:07;;;;;;;2.50;2.30;;;12.60;99.90;;;13.31;100.00;97383.69;5113970;28;20204;-63
2023/05/10 04:00:43;;;;;;;3.05;2.78;;;12.60;99.90;;;13.34;100.00;97384.66;5109747;28;20221;-64
2023/05/10 04:03:16;;;;;;;3.63;2.75;;;12.60;99.90;;;13.41;100.00;97385.75;5113518;28;20684;-63
2023/05/10 04:05:49;;;;;;;2.97;2.78;;;12.60;99.90;;;13.43;100.00;97387.56;5110547;28;20209;-63
2023/05/10 04:08:24;;;;;;;3.25;3.05;;;12.70;99.90;;;13.44;100.00;97386.75;5110345;28;20313;-65
2023/05/10 04:11:07;;;;;;;5.75;3.55;;;12.70;99.90;;;13.44;100.00;97389.31;5115307;28;20204;-68
2023/05/10 04:13:40;;;;;;;3.75;3.42;;;12.70;99.90;;;13.42;100.00;97388.41;5104613;28;20204;-64
2023/05/10 04:16:13;;;;;;;3.72;3.10;;;12.70;99.90;;;13.41;100.00;97391.78;5110040;28;20212;-63
2023/05/10 04:18:46;;;;;;;2.80;2.60;;;12.60;99.90;;;13.48;100.00;97395.47;5106814;28;20725;-64
2023/05/10 04:21:19;;;;;;;3.03;2.63;;;12.70;99.90;;;13.47;100.00;97397.13;5107563;28;20213;-64
2023/05/10 04:23:54;;;;;;;3.17;2.88;;;12.70;99.90;;;13.56;100.00;97388.03;5112204;28;20227;-63
2023/05/10 04:26:27;;;;;;;2.75;2.60;;;12.80;99.90;;;13.57;100.00;97387.22;5115751;28;20212;-63
2023/05/10 04:29:00;;;;;;;2.45;2.35;;;12.80;99.90;;;13.62;100.00;97385.69;5108412;28;20703;-63
2023/05/10 04:31:36;;;;;;;3.05;2.47;;;12.80;99.90;;;13.65;100.00;97388.38;5108558;28;20209;-64
2023/05/10 04:34:09;;;;;;;2.30;2.20;;;12.80;99.90;;;13.71;100.00;97391.19;5112802;28;20239;-63
2023/05/10 04:36:41;;;;;;;2.78;2.35;;;12.80;99.90;;;13.71;100.00;97391.19;5109267;28;20200;-64
2023/05/10 04:39:16;;;;;;;2.78;2.58;;;12.90;99.90;;;13.76;100.00;97392.22;5112453;28;20328;-63
2023/05/10 04:41:49;;;;;;;2.78;2.50;;;12.90;99.90;;;13.83;100.00;97394.22;5109732;28;20208;-64
2023/05/10 04:44:22;;;;;;;2.70;2.50;;;12.90;99.90;;;13.93;100.00;97396.28;5112249;28;20235;-65
2023/05/10 04:46:55;;;;;;;2.80;2.45;;;12.90;99.90;;;13.97;100.00;97395.59;5108131;28;20206;-64
2023/05/10 04:49:28;;;;;;;3.00;2.70;;;13.00;99.90;;;14.05;100.00;97401.00;5113267;28;20720;-64
2023/05/10 04:52:01;;;;;;;3.00;2.80;;;13.00;99.90;;;14.18;100.00;97405.75;5115390;28;20209;-63
2023/05/10 04:54:35;;;;;;;2.67;2.55;;;13.10;99.90;;;14.27;100.00;97402.63;5111166;28;20725;-64
2023/05/10 04:57:08;;;;;;;4.35;2.65;;;13.10;99.90;;;14.28;100.00;97396.69;5113981;28;20204;-64
2023/05/10 04:59:42;;;;;;;2.92;2.50;;;13.10;99.90;;;14.26;100.00;97403.47;5107499;29;20764;-63
2023/05/10 05:02:15;;;;;;;3.40;2.90;;;13.20;99.90;;;14.31;100.00;97412.22;5113461;28;20201;-64
2023/05/10 05:04:48;;;;;;;2.63;2.42;;;13.20;99.90;;;14.20;100.00;97423.81;5111539;28;20600;-66
2023/05/10 05:07:22;;;;;;;2.75;2.55;;;13.20;99.90;;;14.24;100.00;97415.38;5107358;28;20205;-63
2023/05/10 05:09:56;;;;;;;2.75;2.47;;;13.20;99.90;;;14.28;100.00;97417.25;5112487;28;20229;-63
2023/05/10 05:12:29;;;;;;;2.72;2.63;;;13.20;99.90;;;14.24;100.00;97419.63;5109572;28;20199;-63
2023/05/10 05:15:02;;;;;;;2.88;2.67;;;13.20;99.90;;;14.27;100.00;97423.19;5113822;28;20205;-63
2023/05/10 05:17:35;;;;;;;2.83;2.63;;;13.20;99.90;;;14.29;100.00;97424.13;5111909;28;20209;-63
2023/05/10 05:20:10;;;;;;;3.00;2.80;;;13.20;99.90;;;14.30;100.00;97433.56;5112105;28;20320;-65
2023/05/10 05:22:43;;;;;;;2.80;2.55;;;13.20;99.90;;;14.33;100.00;97425.97;5114594;28;20298;-63
2023/05/10 05:25:18;;;;;;;3.25;2.60;;;13.20;99.90;;;14.29;100.00;97439.56;5107587;28;20755;-66
2023/05/10 05:27:51;;;;;;;2.72;2.53;;;13.20;99.90;;;14.28;100.00;97435.25;5109436;28;20257;-66
2023/05/10 05:30:24;;;;;;;3.30;3.00;;;13.20;99.90;;;14.34;100.00;97438.03;5109033;28;20231;-64
2023/05/10 05:32:57;;;;;;;2.83;2.50;;;13.20;99.90;;;14.31;100.00;97432.78;5111687;28;20299;-64
2023/05/10 05:35:30;;;;;;;2.47;2.28;;;13.20;99.90;;;14.26;100.00;97436.00;5115683;28;20295;-64
2023/05/10 05:38:02;;;;;;;2.28;2.15;;;13.20;99.90;;;14.29;100.00;97439.56;5106413;28;20225;-63
2023/05/10 05:40:37;;;;;;;3.75;2.30;;;13.30;99.90;;;14.42;100.00;97446.88;5111379;28;20235;-66
2023/05/10 05:43:10;;;;;;;2.60;2.40;;;13.30;99.90;;;14.33;100.00;97441.41;5109864;28;20201;-64
2023/05/10 05:45:43;;;;;;;3.45;2.08;;;13.30;99.90;;;14.41;100.00;97446.81;5112325;29;20660;-65
2023/05/10 05:48:16;;;;;;;2.67;2.47;;;13.30;99.90;;;14.40;100.00;97445.94;5110153;29;20648;-65
2023/05/10 05:50:49;;;;;;;2.17;2.08;;;13.40;99.90;;;14.38;100.00;97450.16;5107121;28;20735;-67
2023/05/10 05:53:22;;;;;;;2.92;2.28;;;13.40;99.90;;;14.41;100.00;97455.41;5111426;28;20205;-63
2023/05/10 05:55:58;;;;;;;3.25;2.10;;;13.40;99.90;;;14.42;100.00;97449.47;5109257;28;20209;-64
2023/05/10 05:58:31;;;;;;;2.38;2.17;;;13.40;99.90;;;14.40;100.00;97458.81;5109517;28;20339;-66
2023/05/10 06:01:04;;;;;;;2.50;2.25;;;13.40;99.90;;;14.56;100.00;97449.09;5102159;28;20208;-63
2023/05/10 06:03:37;;;;;;;2.40;2.28;;;13.50;99.90;;;14.58;100.00;97457.75;5104831;28;20693;-64
2023/05/10 06:06:10;;;;;;;3.08;2.60;;;13.50;99.90;;;14.65;100.00;97464.84;5113294;28;20205;-64
2023/05/10 06:08:43;;;;;;;2.70;2.50;;;13.50;99.90;;;14.69;100.00;97461.56;5113826;28;20229;-65
2023/05/10 06:11:18;;;;;;;2.45;2.25;;;13.60;99.90;;;14.69;100.00;97458.97;5106383;28;20208;-63
2023/05/10 06:13:51;;;;;;;2.80;2.45;;;13.60;99.90;;;14.59;100.00;97456.91;5109585;28;20196;-64
2023/05/10 06:16:24;;;;;;;2.40;2.22;;;13.50;99.90;;;14.67;100.00;97463.19;5109742;28;20307;-64
2023/05/10 06:18:57;;;;;;;2.30;2.20;;;13.60;99.90;;;14.67;100.00;97468.34;5107160;28;20340;-65
2023/05/10 06:21:30;;;;;;;2.25;2.13;;;13.60;99.90;;;14.66;100.00;97474.31;5104316;28;20591;-64
2023/05/10 06:24:05;;;;;;;2.53;2.33;;;13.50;99.90;;;14.68;100.00;97474.34;5108150;28;20230;-63
2023/05/10 06:26:39;;;;;;;2.20;2.10;;;13.50;99.90;;;14.68;100.00;97477.81;5111845;28;20587;-67
2023/05/10 06:29:12;;;;;;;2.35;2.15;;;13.60;99.90;;;14.74;100.00;97477.16;5108098;28;20607;-64
2023/05/10 06:31:45;;;;;;;2.70;2.50;;;13.70;99.90;;;14.75;100.00;97474.63;5108355;28;20219;-64
2023/05/10 06:34:18;;;;;;;2.85;2.75;;;13.70;99.90;;;14.73;100.00;97477.97;5105819;28;20204;-64
2023/05/10 06:36:51;;;;;;;3.22;2.30;;;13.70;99.90;;;14.67;100.00;97481.19;5109021;28;20205;-63
2023/05/10 06:39:25;;;;;;;2.63;2.45;;;13.70;99.90;;;14.65;100.00;97480.28;5112206;28;20256;-64
2023/05/10 06:41:59;;;;;;;3.03;2.70;;;13.70;99.90;;;14.64;100.00;97479.38;5114430;28;20661;-64
2023/05/10 06:44:32;;;;;;;2.92;2.72;;;13.60;99.90;;;14.73;100.00;97478.84;5108915;29;20532;-64
2023/05/10 06:47:05;;;;;;;2.92;2.05;;;13.60;99.90;;;14.82;100.00;97474.03;5109624;28;20918;-64
2023/05/10 06:49:38;;;;;;;2.60;2.40;;;13.60;99.90;;;14.77;100.00;97480.72;5111158;28;20224;-64
2023/05/10 06:52:11;;;;;;;2.40;2.20;;;13.60;99.90;;;14.86;100.00;97469.84;5107249;28;20201;-64
2023/05/10 06:54:44;;;;;;;2.50;2.40;;;13.50;99.90;;;14.69;100.00;97482.13;5105182;28;20207;-65
2023/05/10 06:57:19;;;;;;;2.25;2.15;;;13.50;99.90;;;14.67;100.00;97488.91;5111339;28;20216;-63
2023/05/10 07:00:05;;;;;;;2.78;2.58;;;13.50;99.90;;;14.68;100.00;97485.53;5106404;28;20681;-63
2023/05/10 07:02:38;;;;;;;2.30;2.20;;;13.50;99.90;;;14.65;100.00;97490.59;5111997;28;20212;-65
2023/05/10 07:05:11;;;;;;;3.13;2.85;;;13.50;99.90;;;14.60;100.00;97497.25;5108566;28;20252;-64
2023/05/10 07:07:44;;;;;;;3.00;2.78;;;13.40;99.90;;;14.78;100.00;97491.88;5103011;28;20212;-64
2023/05/10 07:10:17;;;;;;;2.85;2.65;;;13.50;99.90;;;14.79;100.00;97489.38;5112420;28;20232;-64
2023/05/10 07:12:52;;;;;;;2.60;2.40;;;13.50;99.90;;;14.73;100.00;97493.41;5111931;28;20205;-63
2023/05/10 07:15:25;;;;;;;3.70;3.40;;;13.50;99.90;;;14.62;100.00;97495.59;5109524;28;20656;-67
2023/05/10 07:17:58;;;;;;;4.25;3.90;;;13.50;99.90;;;14.54;100.00;97495.34;5110820;28;20205;-64
2023/05/10 07:20:31;;;;;;;3.25;2.95;;;13.50;99.90;;;14.70;100.00;97490.72;5114392;28;20231;-66
2023/05/10 07:23:04;;;;;;;3.25;2.90;;;13.60;99.90;;;14.63;100.00;97497.38;5109268;29;20240;-64
2023/05/10 07:25:37;;;;;;;3.00;2.70;;;13.60;99.90;;;14.58;100.00;97488.59;5106715;28;20594;-63
2023/05/10 07:28:12;;;;;;;3.17;2.92;;;13.60;99.90;;;14.63;100.00;97497.38;5107074;28;20215;-64
2023/05/10 07:30:45;;;;;;;3.08;2.70;;;13.60;99.90;;;14.56;100.00;97498.81;5108286;28;20236;-64
2023/05/10 07:33:18;;;;;;;3.20;2.90;;;13.60;99.90;;;14.52;100.00;97491.81;5108531;28;20201;-65
2023/05/10 07:35:51;;;;;;;2.92;2.80;;;13.70;99.90;;;14.52;100.00;97498.69;5113223;29;20204;-64
2023/05/10 07:38:24;;;;;;;3.40;3.10;;;13.70;99.90;;;14.52;100.00;97498.69;5106863;28;20212;-65
2023/05/10 07:40:57;;;;;;;3.40;3.10;;;13.70;99.90;;;14.50;100.00;97495.13;5110668;28;21514;-63
2023/05/10 07:43:31;;;;;;;3.35;3.05;;;13.70;99.90;;;14.56;100.00;97492.81;5109480;28;20209;-64
2023/05/10 07:46:05;;;;;;;3.53;3.22;;;13.80;99.90;;;14.58;100.00;97494.63;5107090;29;20232;-63
2023/05/10 07:48:38;;;;;;;4.53;3.47;;;13.80;99.90;;;14.45;100.00;97509.50;5114696;28;20216;-65
2023/05/10 07:51:11;;;;;;;4.68;3.17;;;13.70;99.90;;;14.48;100.00;97501.91;5108545;28;20204;-65
2023/05/10 07:53:44;;;;;;;3.67;3.38;;;13.70;99.90;;;14.65;100.00;97506.03;5106870;28;20209;-65
2023/05/10 07:56:27;;;;;;;4.65;3.47;;;13.90;99.90;;;14.90;100.00;97507.72;5102772;28;20275;-64
2023/05/10 07:59:03;;;;;;;3.33;3.13;;;14.10;99.90;;;15.07;100.00;97508.28;5102017;28;20307;-66
2023/05/10 08:01:36;;;;;;;3.65;3.35;;;14.30;99.90;;;15.44;100.00;97501.78;5106858;28;20270;-65
2023/05/10 08:04:09;;;;;;;3.10;2.90;;;14.50;99.90;;;15.65;100.00;97506.72;5108435;28;20615;-65
2023/05/10 08:06:42;;;;;;;3.10;2.80;;;14.60;99.90;;;15.65;100.00;97507.63;5111651;28;20228;-65
2023/05/10 08:09:17;;;;;;;2.65;2.33;;;14.70;99.90;;;15.69;100.00;97506.94;5103989;28;20232;-64
2023/05/10 08:11:50;;;;;;;2.63;2.42;;;14.70;99.90;;;15.89;100.00;97502.38;5101332;28;20212;-67
2023/05/10 08:14:25;;;;;;;2.72;2.50;;;14.80;99.90;;;15.94;100.00;97499.97;5109286;28;20700;-64
2023/05/10 08:16:58;;;;;;;2.40;2.20;;;14.90;99.90;;;15.93;100.00;97503.34;5113880;28;20200;-64
2023/05/10 08:19:31;;;;;;;2.97;2.50;;;14.90;99.90;;;16.02;100.00;97507.91;5110857;28;20231;-65
2023/05/10 08:22:03;;;;;;;2.20;2.10;;;15.00;99.90;;;16.20;100.00;97508.47;5111476;28;20213;-64
2023/05/10 08:24:38;;;;;;;2.42;1.90;;;15.20;99.90;;;16.25;100.00;97500.84;5113796;28;20209;-64
2023/05/10 08:27:11;;;;;;;2.10;2.00;;;15.30;99.90;;;16.47;100.00;97508.38;5113507;28;20208;-64
2023/05/10 08:29:45;;;;;;;1.90;1.80;;;15.40;99.90;;;16.46;100.00;97511.78;5107233;28;20253;-64
2023/05/10 08:32:22;;;;;;;2.20;2.10;;;15.60;99.90;;;16.35;100.00;97502.88;5109613;28;20271;-65
2023/05/10 08:34:55;;;;;;;2.38;2.28;;;15.50;99.90;;;16.37;100.00;97508.94;5111879;28;20301;-65
2023/05/10 08:37:32;;;;;;;2.97;2.58;;;15.50;99.90;;;16.42;100.00;97515.09;5114995;28;20204;-64
2023/05/10 08:40:06;;;;;;;2.63;2.30;;;15.40;99.90;;;16.36;100.00;97510.63;5113237;28;20280;-64
2023/05/10 08:42:44;;;;;;;3.40;1.92;;;15.40;99.90;;;16.40;100.00;97501.31;5114974;28;20207;-64
2023/05/10 08:45:20;;;;;;;2.58;2.05;;;15.50;99.90;;;16.34;100.00;97498.50;5112191;28;20232;-65
2023/05/10 08:47:53;;;;;;;1.88;1.73;;;15.50;99.90;;;16.22;100.00;97493.88;5107518;28;20235;-65
2023/05/10 08:50:27;;;;;;;1.90;1.80;;;15.30;99.90;;;16.20;100.00;97505.88;5110548;28;20256;-66
2023/05/10 08:53:05;;;;;;;2.55;1.98;;;15.20;99.90;;;16.03;100.00;97509.66;5110824;28;20205;-65
2023/05/10 08:55:39;;;;;;;1.77;1.67;;;15.20;99.90;;;16.03;100.00;97507.09;5107483;28;20216;-64
2023/05/10 08:58:12;;;;;;;2.00;1.90;;;15.20;99.90;;;16.02;100.00;97513.06;5118120;28;20295;-64
2023/05/10 09:00:49;;;;;;;1.67;1.67;;;15.10;99.90;;;15.97;100.00;97520.66;5115666;28;20232;-65
2023/05/10 09:03:22;;;;;;;2.30;2.10;;;15.10;99.90;;;15.96;100.00;97521.47;5112454;28;20243;-65
2023/05/10 09:05:55;;;;;;;4.68;3.67;;;15.20;99.90;;;16.06;100.00;97520.94;5111766;28;20689;-66
2023/05/10 09:08:30;;;;;;;4.30;3.70;;;15.20;99.90;;;16.01;100.00;97525.06;5101615;28;20222;-65
2023/05/10 09:11:03;;;;;;;2.72;2.30;;;15.20;99.90;;;15.91;100.00;97525.63;5108011;28;20824;-66
2023/05/10 09:13:37;;;;;;;3.13;2.60;;;15.10;99.90;;;15.90;100.00;97529.03;5111106;28;20569;-65
2023/05/10 09:16:11;;;;;;;2.10;2.00;;;15.00;99.90;;;15.90;100.00;97523.88;5107213;29;20226;-65
2023/05/10 09:18:53;;;;;;;5.45;3.70;;;15.00;99.90;;;16.00;100.00;97536.22;5106394;28;20236;-65
2023/05/10 09:21:27;;;;;;;6.10;4.28;;;15.10;99.90;;;16.10;100.00;97538.25;5109043;28;20293;-64
2023/05/10 09:24:04;;;;;;;15.00;8.98;;;15.20;99.90;;;16.28;100.00;97542.19;5100244;28;20209;-65
2023/05/10 09:26:48;;;;;;;20.15;11.55;;;15.20;99.90;;;16.44;100.00;97541.81;5108744;28;20216;-65
2023/05/10 09:29:21;;;;;;;8.52;4.68;;;15.30;99.90;;;16.27;98.91;97540.44;5112046;28;20316;-66
2023/05/10 09:31:55;;;;;;;8.30;4.63;;;15.20;99.90;;;16.24;97.16;97546.41;5112812;28;20209;-65
2023/05/10 09:34:31;;;;;;;4.78;3.70;;;15.20;99.90;;;16.34;97.41;97543.28;5111180;29;20589;-64
2023/05/10 09:37:04;;;;;;;6.95;5.70;;;15.20;99.90;;;16.33;97.30;97553.53;5110543;28;20204;-65
2023/05/10 09:39:38;;;;;;;3.75;3.40;;;15.20;99.90;;;16.27;100.00;97549.06;5114364;28;20224;-66
2023/05/10 09:42:11;;;;;;;3.10;2.85;;;15.20;99.90;;;16.25;100.00;97552.41;5105228;28;20724;-65
2023/05/10 09:44:47;;;;;;;3.00;2.70;;;15.20;99.90;;;16.32;100.00;97550.06;5103104;28;20223;-65
2023/05/10 09:47:22;;;;;;;2.92;2.72;;;15.20;99.90;;;16.48;100.00;97545.34;5102778;28;20216;-66
2023/05/10 09:49:57;;;;;;;1.80;1.50;;;15.40;99.90;;;16.75;100.00;97545.28;5110361;28;20231;-65
2023/05/10 09:52:31;;;;;;;1.92;1.83;;;15.50;99.90;;;16.82;98.83;97545.50;5112362;28;20311;-65
2023/05/10 09:55:05;;;;;;;2.28;1.58;;;15.70;99.90;;;16.76;97.30;97547.91;5110461;28;20204;-66
2023/05/10 09:57:38;;;;;;;1.75;1.50;;;15.70;99.90;;;16.84;100.00;97542.97;5102932;29;20220;-64
2023/05/10 10:00:18;;;;;;;3.28;1.90;;;15.70;99.90;;;16.84;99.26;97548.13;5112299;28;20228;-65
2023/05/10 10:02:59;;;;;;;1.92;1.60;;;15.80;99.90;;;17.02;99.35;97546.03;5116142;28;20695;-65
2023/05/10 10:05:33;;;;;;;2.22;2.13;;;15.90;99.90;;;17.09;98.04;97547.09;5106892;28;20546;-65
2023/05/10 10:08:07;;;;;;;1.77;1.67;;;15.90;99.90;;;17.28;98.23;97551.91;5114135;28;20211;-64
2023/05/10 10:10:41;;;;;;;1.50;1.40;;;16.10;99.90;;;17.10;91.33;97549.69;5109842;28;20235;-65
2023/05/10 10:13:15;;;;;;;1.67;1.45;;;16.10;99.90;;;17.26;96.58;97550.13;5106918;28;20197;-65
2023/05/10 10:15:50;;;;;;;2.58;1.80;;;16.10;99.90;;;17.28;94.82;97545.84;5110990;28;20395;-65
2023/05/10 10:18:26;;;;;;;1.88;1.58;;;16.10;99.90;;;17.25;88.93;97553.50;5109115;28;20208;-65
2023/05/10 10:21:00;;;;;;;2.78;1.48;;;16.10;99.90;;;17.27;92.64;97546.69;5108950;28;20644;-64
2023/05/10 10:23:33;;;;;;;1.42;1.42;;;16.10;99.90;;;17.37;86.42;97547.78;5105000;28;20206;-65
2023/05/10 10:26:07;;;;;;;1.83;1.30;;;16.20;99.90;;;17.27;89.47;97541.53;5102552;28;20236;-65
2023/05/10 10:28:58;;;;;;;2.05;1.50;;;16.20;99.90;;;17.22;90.11;97543.97;5108742;28;20204;-66
2023/05/10 10:31:40;;;;;;;2.30;2.00;;;16.10;99.90;;;17.29;92.03;97545.91;5112176;28;20562;-65
2023/05/10 10:34:28;;;;;;;1.50;1.35;;;16.10;99.90;;;17.24;92.56;97549.19;5105773;28;20204;-65
2023/05/10 10:37:06;;;;;;;1.80;1.70;;;16.10;99.90;;;17.36;96.34;97539.16;5105692;28;20205;-65
2023/05/10 10:39:39;;;;;;;2.00;1.42;;;16.10;99.90;;;17.25;90.22;97543.19;5102087;28;20225;-65
2023/05/10 10:42:12;;;;;;;1.45;1.35;;;16.10;99.90;;;17.14;89.61;97549.78;5110154;28;20209;-66
2023/05/10 10:44:45;;;;;;;2.38;2.08;;;16.10;99.90;;;17.38;99.53;97540.09;5115670;28;20200;-65